createdAt,value
2022-08-10T00:01:28.651Z,88.01
2022-08-10T00:04:22.782Z,88.56
2022-08-10T00:06:34.473Z,88.56
2022-08-10T00:08:47.562Z,88.36
2022-08-10T00:10:59.658Z,88.56
2022-08-10T00:13:13.038Z,88.87
2022-08-10T00:15:52.670Z,88.81
2022-08-10T00:16:32.119Z,90.13
2022-08-10T00:19:16.672Z,90.84
2022-08-10T00:21:39.713Z,89.72
2022-08-10T00:23:54.790Z,89.83
2022-08-10T00:26:11.517Z,89.83
2022-08-10T00:29:40.982Z,89.92
2022-08-10T00:31:55.976Z,90.17
2022-08-10T00:34:38.566Z,90.48
2022-08-10T00:37:57.700Z,90.99
2022-08-10T00:41:32.258Z,90.58
2022-08-10T00:43:44.357Z,90.58
2022-08-10T00:45:59.078Z,90.72
2022-08-10T00:48:10.440Z,90.92
2022-08-10T00:50:23.393Z,91.33
2022-08-10T00:52:34.873Z,91.53
2022-08-10T00:54:46.663Z,91.53
2022-08-10T00:57:18.694Z,91.74
2022-08-10T00:59:28.984Z,92.09
2022-08-10T01:02:09.500Z,91.68
2022-08-10T01:02:42.078Z,91.88
2022-08-10T01:04:59.865Z,91.78
2022-08-10T01:07:18.622Z,91.99
2022-08-10T01:09:31.702Z,92.19
2022-08-10T01:12:40.825Z,92.60
2022-08-10T01:12:44.748Z,93.05
2022-08-10T01:14:56.688Z,93.96
2022-08-10T01:17:07.960Z,94.78
2022-08-10T01:19:58.802Z,94.47
2022-08-10T01:22:10.952Z,93.45
2022-08-10T01:24:25.135Z,95.79
2022-08-10T01:26:37.210Z,94.78
2022-08-10T01:28:48.166Z,95.03
2022-08-10T01:31:01.246Z,94.11
2022-08-10T01:33:14.205Z,94.42
2022-08-10T01:35:25.471Z,94.11
2022-08-10T01:37:54.551Z,94.21
2022-08-10T01:40:18.175Z,94.82
2022-08-10T01:42:38.436Z,94.82
2022-08-10T01:44:50.535Z,95.84
2022-08-10T01:47:32.187Z,95.64
2022-08-10T01:49:45.273Z,95.23
2022-08-10T01:52:00.678Z,94.92
2022-08-10T01:54:12.966Z,95.03
2022-08-10T01:57:06.636Z,95.13
2022-08-10T02:00:12.760Z,95.23
2022-08-10T02:02:24.817Z,95.13
2022-08-10T02:05:17.479Z,95.37
2022-08-10T02:07:29.530Z,95.48
2022-08-10T02:09:53.587Z,95.07
2022-08-10T02:12:08.637Z,94.87
2022-08-10T02:14:17.736Z,94.87
2022-08-10T02:16:29.831Z,95.17
2022-08-10T02:18:42.887Z,95.17
2022-08-10T02:20:55.984Z,95.17
2022-08-10T02:23:08.055Z,95.21
2022-08-10T02:25:42.249Z,95.21
2022-08-10T02:26:21.107Z,95.21
2022-08-10T02:28:33.204Z,95.32
2022-08-10T02:30:45.273Z,95.32
2022-08-10T02:32:58.372Z,95.42
2022-08-10T02:35:13.947Z,95.32
2022-08-10T02:36:11.406Z,95.42
2022-08-10T02:38:22.509Z,95.62
2022-08-10T02:45:01.480Z,95.67
2022-08-10T02:45:13.076Z,95.62
2022-08-10T02:45:19.059Z,95.67
2022-08-10T02:45:23.150Z,95.87
2022-08-10T02:45:27.647Z,95.87
2022-08-10T02:45:56.502Z,96.18
2022-08-10T02:47:52.180Z,96.18
2022-08-10T02:50:00.006Z,96.18
2022-08-10T02:52:12.061Z,96.18
2022-08-10T02:54:24.173Z,96.18
2022-08-10T02:56:36.223Z,96.18
2022-08-10T02:58:48.318Z,96.18
2022-08-10T03:01:00.420Z,96.08
2022-08-10T03:03:12.471Z,96.12
2022-08-10T03:05:25.610Z,96.12
2022-08-10T03:07:44.413Z,96.22
2022-08-10T03:09:50.692Z,96.43
2022-08-10T03:12:36.073Z,96.22
2022-08-10T03:13:03.749Z,96.43
2022-08-10T03:15:15.635Z,96.43
2022-08-10T03:17:26.924Z,96.53
2022-08-10T03:20:35.157Z,98.27
2022-08-10T03:20:41.474Z,99.08
2022-08-10T03:22:57.169Z,98.11
2022-08-10T03:25:21.185Z,97.49
2022-08-10T03:27:33.307Z,97.29
2022-08-10T03:30:28.541Z,97.19
2022-08-10T03:30:46.354Z,97.19
2022-08-10T03:32:57.441Z,98.00
2022-08-10T03:35:10.502Z,99.13
2022-08-10T03:37:22.611Z,99.84
2022-08-10T03:39:35.768Z,99.99
2022-08-10T03:41:53.475Z,99.99
2022-08-10T03:44:00.811Z,99.99
2022-08-10T03:46:13.737Z,99.99
2022-08-10T03:48:33.255Z,99.99
2022-08-10T03:49:25.931Z,99.99
2022-08-10T03:51:37.038Z,99.64
2022-08-10T03:54:05.966Z,99.02
2022-08-10T03:56:28.333Z,98.72
2022-08-10T03:57:02.191Z,98.86
2022-08-10T03:59:14.283Z,98.97
2022-08-10T04:02:42.272Z,98.77
2022-08-10T04:02:43.823Z,98.77
2022-08-10T04:03:29.191Z,98.77
2022-08-10T04:05:39.114Z,98.61
2022-08-10T04:07:50.844Z,98.56
2022-08-10T04:10:02.944Z,98.61
2022-08-10T04:12:16.008Z,98.31
2022-08-10T04:14:47.182Z,98.61
2022-08-10T04:15:30.089Z,98.82
2022-08-10T04:18:04.982Z,98.82
2022-08-10T04:19:54.249Z,99.33
2022-08-10T04:22:06.304Z,99.02
2022-08-10T04:24:26.233Z,98.68
2022-08-10T04:25:19.381Z,98.77
2022-08-10T04:27:30.469Z,99.99
2022-08-10T04:29:42.542Z,99.99
2022-08-10T04:31:54.646Z,99.99
2022-08-10T04:34:08.781Z,99.95
2022-08-10T04:36:18.776Z,99.34
2022-08-10T04:38:30.870Z,98.93
2022-08-10T04:40:42.947Z,99.09
2022-08-10T04:43:02.388Z,99.60
2022-08-10T04:45:09.108Z,99.19
2022-08-10T04:47:57.780Z,99.25
2022-08-10T04:48:41.450Z,99.99
2022-08-10T04:49:55.445Z,99.99
2022-08-10T04:51:34.117Z,99.99
2022-08-10T04:54:05.496Z,99.99
2022-08-10T04:55:57.413Z,99.99
2022-08-10T04:58:09.498Z,99.99
2022-08-10T05:00:21.579Z,99.99
2022-08-10T05:02:37.247Z,99.99
2022-08-10T05:04:47.572Z,99.99
2022-08-10T05:07:00.483Z,99.99
2022-08-10T05:09:14.218Z,98.93
2022-08-10T05:11:29.707Z,97.97
2022-08-10T05:14:03.426Z,96.51
2022-08-10T05:16:32.321Z,95.55
2022-08-10T05:17:19.190Z,95.25
2022-08-10T05:20:01.630Z,94.70
2022-08-10T05:20:32.835Z,94.59
2022-08-10T05:25:11.288Z,92.79
2022-08-10T05:29:40.029Z,90.98
2022-08-10T05:31:53.253Z,90.12
2022-08-10T05:34:43.383Z,88.41
2022-08-10T05:36:58.751Z,88.77
2022-08-10T05:40:38.540Z,88.47
2022-08-10T05:42:52.272Z,87.52
2022-08-10T05:45:06.125Z,86.27
2022-08-10T05:48:54.100Z,85.62
2022-08-10T05:48:54.828Z,86.83
2022-08-10T05:49:36.727Z,85.17
2022-08-10T06:02:50.823Z,81.29
2022-08-10T06:05:58.233Z,80.25
2022-08-10T06:09:58.576Z,79.91
2022-08-10T06:13:19.337Z,78.42
2022-08-10T06:14:15.747Z,78.03
2022-08-10T06:16:22.294Z,76.75
2022-08-10T06:18:50.957Z,75.45
2022-08-10T06:21:03.194Z,75.34
2022-08-10T06:23:16.858Z,75.54
2022-08-10T06:26:11.375Z,74.40
2022-08-10T06:32:45.181Z,73.73
2022-08-10T06:35:44.505Z,73.60
2022-08-10T06:38:08.767Z,71.69
2022-08-10T06:42:15.160Z,72.30
2022-08-10T06:42:41.285Z,71.80
2022-08-10T06:44:53.707Z,72.33
2022-08-10T06:47:05.765Z,72.60
2022-08-10T06:55:18.704Z,72.76
2022-08-10T06:57:59.648Z,71.66
2022-08-10T06:58:48.699Z,70.86
2022-08-10T07:01:55.816Z,69.96
2022-08-10T07:06:24.653Z,70.83
2022-08-10T07:08:42.735Z,68.73
2022-08-10T07:14:14.170Z,69.16
2022-08-10T07:14:34.783Z,67.06
2022-08-10T07:16:45.863Z,68.66
2022-08-10T07:19:15.018Z,69.16
2022-08-10T07:21:30.207Z,67.89
2022-08-10T07:28:36.788Z,66.60
2022-08-10T07:32:32.356Z,64.87
2022-08-10T07:36:39.668Z,64.43
2022-08-10T07:38:51.731Z,65.23
2022-08-10T07:41:03.832Z,66.17
2022-08-10T07:43:21.407Z,64.90
2022-08-10T07:45:38.025Z,62.81
2022-08-10T07:48:06.715Z,64.20
2022-08-10T07:50:28.871Z,63.70
2022-08-10T07:53:40.194Z,62.48
2022-08-10T07:56:05.800Z,62.57
2022-08-10T07:58:20.499Z,63.07
2022-08-10T08:00:32.375Z,63.57
2022-08-10T08:05:02.618Z,62.15
2022-08-10T08:07:19.409Z,62.54
2022-08-10T08:09:33.571Z,61.44
2022-08-10T08:11:45.660Z,60.62
2022-08-10T08:13:58.734Z,61.22
2022-08-10T08:16:17.022Z,61.15
2022-08-10T08:18:27.209Z,60.62
2022-08-10T08:20:39.318Z,58.72
2022-08-10T08:24:10.410Z,59.39
2022-08-10T08:24:10.410Z,59.19
2022-08-10T08:26:11.353Z,57.45
2022-08-10T08:28:23.423Z,55.97
2022-08-10T08:30:36.492Z,54.97
2022-08-10T08:32:48.569Z,54.80
2022-08-10T08:35:01.671Z,56.59
2022-08-10T08:37:18.856Z,55.20
2022-08-10T08:38:28.828Z,54.31
2022-08-10T08:39:14.731Z,54.97
2022-08-10T08:43:43.222Z,53.58
2022-08-10T08:46:01.404Z,54.78
2022-08-10T08:49:10.360Z,54.35
2022-08-10T08:53:21.409Z,49.66
2022-08-10T08:54:12.170Z,51.05
2022-08-10T08:56:53.105Z,52.69
2022-08-10T08:59:05.204Z,50.28
2022-08-10T09:01:20.726Z,49.44
2022-08-10T09:03:32.776Z,50.34
2022-08-10T09:05:58.595Z,46.74
2022-08-10T09:06:45.798Z,47.91
2022-08-10T09:08:58.503Z,48.48
2022-08-10T09:12:40.091Z,45.90
2022-08-10T09:14:55.173Z,43.85
2022-08-10T09:56:22.230Z,41.67
2022-08-10T10:00:31.979Z,40.88
2022-08-10T10:02:45.362Z,37.60
2022-08-10T10:08:20.326Z,38.98
2022-08-10T10:18:11.784Z,40.05
2022-08-10T10:20:23.888Z,39.73
2022-08-10T10:22:35.915Z,38.67
2022-08-10T10:25:25.614Z,38.51
2022-08-10T10:29:37.478Z,42.44
2022-08-10T10:30:11.315Z,38.37
2022-08-10T10:32:24.356Z,39.06
2022-08-10T10:34:52.513Z,36.07
2022-08-10T10:37:20.616Z,35.20
2022-08-10T10:38:21.590Z,38.83
2022-08-10T10:40:32.722Z,36.27
2022-08-10T10:44:07.938Z,38.06
2022-08-10T10:47:01.271Z,39.54
2022-08-10T10:49:14.617Z,39.52
2022-08-10T10:53:31.086Z,35.76
2022-08-10T11:06:59.318Z,37.26
2022-08-10T11:10:07.940Z,37.87
2022-08-10T11:10:32.632Z,37.95
2022-08-10T11:14:23.244Z,35.00
2022-08-10T11:14:44.842Z,35.78
2022-08-10T11:22:21.836Z,35.53
2022-08-10T12:47:05.772Z,33.85
2022-08-10T12:48:04.162Z,33.06
2022-08-10T13:13:18.168Z,35.61
2022-08-10T13:15:49.771Z,34.53
2022-08-10T13:16:32.191Z,35.71
2022-08-10T13:23:37.740Z,33.85
2022-08-10T14:42:03.105Z,35.30
2022-08-10T14:43:40.775Z,34.71
2022-08-10T14:47:52.719Z,33.84
2022-08-10T14:48:08.318Z,32.85
2022-08-10T14:50:31.724Z,34.63
2022-08-10T14:51:20.223Z,33.54
2022-08-10T14:54:06.848Z,35.81
2022-08-10T14:56:18.931Z,33.04
2022-08-10T14:58:31.016Z,35.41
2022-08-10T15:02:56.074Z,36.11
2022-08-10T15:04:00.791Z,36.99
2022-08-10T15:06:44.483Z,33.94
2022-08-10T15:08:56.590Z,34.33
2022-08-10T15:11:08.647Z,34.53
2022-08-10T15:12:14.922Z,34.43
2022-08-10T15:14:43.013Z,36.50
2022-08-10T15:17:06.890Z,35.52
2022-08-10T15:20:03.695Z,36.21
2022-08-10T15:20:20.858Z,35.91
2022-08-10T15:24:59.653Z,34.23
2022-08-10T15:28:12.807Z,34.79
2022-08-10T15:32:40.233Z,33.23
2022-08-10T15:35:46.796Z,36.78
2022-08-10T15:37:58.846Z,35.69
2022-08-10T15:40:21.578Z,34.31
2022-08-10T15:41:11.994Z,35.60
2022-08-10T15:50:50.818Z,33.22
2022-08-10T15:53:03.695Z,29.46
2022-08-10T15:55:44.000Z,28.00
2022-08-10T15:56:31.992Z,27.37
2022-08-10T15:59:10.318Z,26.54
2022-08-10T16:06:02.183Z,26.21
2022-08-10T16:06:48.407Z,26.97
2022-08-10T16:10:26.098Z,25.98
2022-08-10T16:10:26.705Z,25.90
2022-08-10T16:11:16.778Z,24.82
2022-08-10T16:14:01.645Z,25.30
2022-08-10T16:16:12.750Z,24.79
2022-08-10T16:22:02.678Z,24.16
2022-08-10T16:23:03.669Z,24.74
2022-08-10T16:27:19.272Z,23.77
2022-08-10T16:29:11.338Z,23.26
2022-08-10T16:37:29.370Z,23.44
2022-08-10T16:38:30.329Z,21.81
2022-08-10T16:41:08.407Z,21.16
2022-08-10T16:42:09.378Z,23.22
2022-08-10T16:44:22.458Z,22.44
2022-08-10T16:48:49.576Z,24.80
2022-08-10T16:49:36.564Z,23.95
2022-08-10T16:51:47.686Z,25.39
2022-08-10T16:53:59.771Z,28.20
2022-08-10T16:56:12.852Z,30.24
2022-08-10T16:59:02.490Z,32.87
2022-08-10T17:01:14.610Z,33.82
2022-08-10T17:04:15.110Z,35.64
2022-08-10T17:06:38.116Z,37.05
2022-08-10T17:09:42.372Z,37.16
2022-08-10T17:11:55.438Z,37.18
2022-08-10T17:14:07.509Z,37.70
2022-08-10T17:16:20.589Z,36.62
2022-08-10T17:18:32.667Z,37.32
2022-08-10T17:20:44.778Z,37.83
2022-08-10T17:22:56.821Z,39.02
2022-08-10T17:25:09.903Z,39.73
2022-08-10T17:28:05.708Z,40.33
2022-08-10T17:28:36.015Z,40.03
2022-08-10T17:30:57.901Z,41.44
2022-08-10T17:31:55.123Z,41.63
2022-08-10T17:32:44.295Z,42.33
2022-08-10T17:34:49.456Z,42.55
2022-08-10T17:38:18.125Z,43.26
2022-08-10T17:40:30.172Z,43.16
2022-08-10T17:42:44.150Z,43.68
2022-08-10T17:44:58.225Z,42.69
2022-08-10T17:47:10.586Z,44.87
2022-08-10T17:49:23.367Z,45.96
2022-08-10T17:51:35.449Z,46.98
2022-08-10T17:53:49.033Z,48.07
2022-08-10T17:56:01.113Z,48.10
2022-08-10T17:58:14.183Z,48.81
2022-08-10T18:00:33.893Z,50.90
2022-08-10T18:02:49.122Z,51.62
2022-08-10T18:05:10.437Z,52.14
2022-08-10T18:07:23.601Z,53.83
2022-08-10T18:09:36.677Z,53.46
2022-08-10T18:11:48.766Z,54.36
2022-08-10T18:14:00.827Z,54.58
2022-08-10T18:16:12.900Z,55.28
2022-08-10T18:18:24.986Z,56.21
2022-08-10T18:20:37.363Z,56.81
2022-08-10T18:22:49.173Z,56.83
2022-08-10T18:25:01.222Z,57.73
2022-08-10T18:27:14.293Z,58.25
2022-08-10T18:29:27.889Z,58.75
2022-08-10T18:31:40.911Z,59.08
2022-08-10T18:35:09.542Z,59.81
2022-08-10T18:36:11.284Z,60.11
2022-08-10T18:38:21.515Z,61.73
2022-08-10T18:40:37.004Z,61.93
2022-08-10T18:42:49.194Z,62.53
2022-08-10T18:45:05.879Z,63.46
2022-08-10T18:47:17.977Z,62.59
2022-08-10T18:50:38.555Z,63.79
2022-08-10T18:52:59.865Z,64.32
2022-08-10T18:55:14.512Z,66.02
2022-08-10T18:57:26.037Z,66.55
2022-08-10T19:00:09.518Z,67.05
2022-08-10T19:02:26.170Z,67.09
2022-08-10T19:04:46.863Z,67.09
2022-08-10T19:07:17.120Z,67.82
2022-08-10T19:09:41.561Z,68.42
2022-08-10T19:10:31.124Z,67.65
2022-08-10T19:15:24.584Z,67.49
2022-08-10T19:24:36.470Z,70.06
2022-08-10T19:26:48.488Z,70.96
2022-08-10T19:31:44.683Z,70.29
2022-08-10T19:34:11.513Z,71.00
2022-08-10T19:34:58.037Z,71.23
2022-08-10T19:37:42.302Z,70.83
2022-08-10T19:40:12.483Z,71.47
2022-08-10T19:43:09.185Z,71.97
2022-08-10T19:46:00.980Z,71.67
2022-08-10T19:46:17.372Z,70.29
2022-08-10T19:54:52.422Z,70.79
2022-08-10T19:57:16.477Z,67.88
2022-08-10T20:00:19.702Z,68.68
2022-08-10T20:01:55.907Z,66.54
2022-08-10T20:04:05.757Z,64.90
2022-08-10T20:06:20.425Z,63.17
2022-08-10T20:10:19.256Z,62.40
2022-08-10T20:12:34.378Z,63.10
2022-08-10T20:14:45.177Z,62.77
2022-08-10T20:16:58.115Z,63.40
2022-08-10T20:21:25.579Z,63.90
2022-08-10T20:25:14.126Z,63.24
2022-08-10T20:27:59.297Z,63.34
2022-08-10T20:29:57.479Z,63.95
2022-08-10T20:30:37.416Z,64.04
2022-08-10T20:32:55.840Z,64.15
2022-08-10T20:36:28.114Z,64.45
2022-08-10T20:38:41.190Z,64.84
2022-08-10T20:40:53.278Z,65.85
2022-08-10T20:43:05.349Z,65.75
2022-08-10T20:45:21.613Z,65.65
2022-08-10T20:47:30.496Z,65.88
2022-08-10T20:49:42.902Z,66.18
2022-08-10T20:51:58.158Z,66.99
2022-08-10T20:54:06.742Z,67.82
2022-08-10T20:56:18.842Z,67.22
2022-08-10T20:58:30.896Z,68.82
2022-08-10T21:00:44.025Z,68.65
2022-08-10T21:02:57.028Z,69.06
2022-08-10T21:05:08.196Z,69.35
2022-08-10T21:07:33.044Z,69.79
2022-08-10T21:08:21.217Z,69.99
2022-08-10T21:10:32.317Z,69.59
2022-08-10T21:12:44.413Z,69.59
2022-08-10T21:14:56.468Z,70.50
2022-08-10T21:17:08.553Z,69.89
2022-08-10T21:19:20.658Z,70.29
2022-08-10T21:21:41.595Z,70.19
2022-08-10T21:22:33.680Z,70.39
2022-08-10T21:24:44.772Z,69.99
2022-08-10T21:26:56.980Z,70.63
2022-08-10T21:29:08.961Z,70.43
2022-08-10T21:31:22.170Z,71.03
2022-08-10T21:33:33.087Z,70.83
2022-08-10T21:35:45.197Z,71.23
2022-08-10T21:37:58.746Z,71.47
2022-08-10T21:40:35.221Z,72.27
2022-08-10T21:41:17.876Z,72.27
2022-08-10T21:43:21.423Z,71.77
2022-08-10T21:45:58.242Z,71.97
2022-08-10T21:46:34.468Z,72.27
2022-08-10T21:48:46.547Z,72.20
2022-08-10T21:49:47.532Z,72.00
2022-08-10T21:52:00.980Z,73.21
2022-08-10T21:54:10.695Z,74.11
2022-08-10T21:56:22.795Z,74.05
2022-08-10T21:58:34.845Z,74.35
2022-08-10T22:00:47.014Z,74.69
2022-08-10T22:03:00.521Z,74.79
2022-08-10T22:05:12.111Z,75.70
2022-08-10T22:07:24.208Z,75.93
2022-08-10T22:09:42.563Z,76.23
2022-08-10T22:11:48.388Z,76.37
2022-08-10T22:14:00.455Z,76.77
2022-08-10T22:16:12.545Z,77.38
2022-08-10T22:18:31.104Z,77.82
2022-08-10T22:20:36.711Z,77.51
2022-08-10T22:22:56.347Z,77.82
2022-08-10T22:25:01.977Z,78.26
2022-08-10T22:27:47.069Z,78.66
2022-08-10T22:28:17.556Z,78.66
2022-08-10T22:30:26.977Z,79.16
2022-08-10T22:32:40.047Z,79.27
2022-08-10T22:34:53.154Z,79.47
2022-08-10T22:37:05.199Z,79.16
2022-08-10T22:40:12.182Z,79.30
2022-08-10T22:40:39.333Z,79.30
2022-08-10T22:42:29.355Z,79.61
2022-08-10T22:43:35.829Z,79.50
2022-08-10T22:45:41.428Z,80.15
2022-08-10T22:47:54.470Z,79.74
2022-08-10T22:50:10.337Z,80.35
2022-08-10T22:52:20.616Z,81.05
2022-08-10T22:54:32.706Z,80.55
2022-08-10T22:56:44.811Z,80.90
2022-08-10T22:58:56.890Z,80.90
2022-08-10T23:01:08.962Z,81.30
2022-08-10T23:03:22.209Z,81.40
2022-08-10T23:05:33.134Z,82.04
2022-08-10T23:07:45.222Z,82.04
2022-08-10T23:09:57.291Z,82.24
2022-08-10T23:12:09.353Z,82.24
2022-08-10T23:14:21.440Z,82.28
2022-08-10T23:16:33.523Z,82.59
2022-08-10T23:18:45.621Z,82.69
2022-08-10T23:20:57.679Z,82.69
2022-08-10T23:23:10.343Z,82.89
2022-08-10T23:25:21.848Z,82.69
2022-08-10T23:27:38.949Z,83.03
2022-08-10T23:30:10.632Z,83.23
2022-08-10T23:32:07.009Z,83.03
2022-08-10T23:34:11.152Z,83.74
2022-08-10T23:36:33.881Z,83.94
2022-08-10T23:38:36.334Z,83.98
2022-08-10T23:40:48.465Z,83.98
2022-08-10T23:43:01.523Z,84.08
2022-08-10T23:45:13.629Z,84.28
2022-08-10T23:47:25.710Z,84.53
2022-08-10T23:49:37.785Z,85.03
2022-08-10T23:51:55.812Z,85.03
2022-08-10T23:54:02.786Z,85.54
2022-08-10T23:56:14.030Z,85.54
2022-08-10T23:58:33.252Z,85.88
